createdAt,value
2018-11-23T00:00:23.160Z,39.03
2018-11-23T00:02:51.554Z,37.33
2018-11-23T00:05:19.683Z,39.33
2018-11-23T00:07:48.024Z,38.50
2018-11-23T00:10:21.074Z,39.80
2018-11-23T00:12:49.214Z,40.00
2018-11-23T00:15:18.372Z,38.50
2018-11-23T00:17:46.356Z,37.47
2018-11-23T00:20:15.618Z,39.70
2018-11-23T00:22:43.802Z,40.10
2018-11-23T00:25:13.842Z,39.50
2018-11-23T00:27:41.983Z,37.10
2018-11-23T00:30:13.367Z,40.17
2018-11-23T00:32:41.535Z,36.13
2018-11-23T00:35:11.291Z,39.97
2018-11-23T00:37:39.298Z,40.80
2018-11-23T00:40:09.328Z,39.37
2018-11-23T00:42:37.309Z,41.47
2018-11-23T00:45:06.985Z,39.43
2018-11-23T00:47:34.978Z,40.67
2018-11-23T00:50:02.983Z,38.70
2018-11-23T00:52:30.987Z,39.27
2018-11-23T00:54:59.995Z,40.30
2018-11-23T00:57:28.009Z,38.80
2018-11-23T00:59:56.002Z,40.50
2018-11-23T01:02:23.986Z,37.57
2018-11-23T01:04:51.978Z,37.17
2018-11-23T01:07:19.979Z,37.07
2018-11-23T01:09:48.003Z,38.30
2018-11-23T01:12:16.022Z,40.73
2018-11-23T01:14:44.025Z,42.10
2018-11-23T01:17:12.025Z,38.70
2018-11-23T01:19:40.012Z,41.10
2018-11-23T01:22:07.997Z,37.57
2018-11-23T01:24:36.025Z,39.97
2018-11-23T01:27:04.054Z,41.27
2018-11-23T01:29:32.053Z,39.60
2018-11-23T01:32:00.083Z,40.30
2018-11-23T01:34:28.103Z,37.87
2018-11-23T01:36:56.171Z,42.53
2018-11-23T01:39:24.161Z,39.80
2018-11-23T01:41:52.162Z,41.57
2018-11-23T01:44:20.178Z,41.60
2018-11-23T01:46:48.190Z,40.50
2018-11-23T01:49:16.292Z,38.50
2018-11-23T01:51:44.331Z,39.70
2018-11-23T01:54:12.346Z,41.23
2018-11-23T01:56:40.378Z,38.80
2018-11-23T01:59:08.553Z,39.67
2018-11-23T02:01:36.569Z,38.50
2018-11-23T02:04:04.685Z,39.93
2018-11-23T02:06:32.758Z,41.33
2018-11-23T02:09:00.768Z,42.90
2018-11-23T02:11:28.774Z,39.07
2018-11-23T02:13:56.781Z,40.27
2018-11-23T02:16:24.814Z,43.50
2018-11-23T02:18:52.802Z,38.97
2018-11-23T02:21:20.843Z,40.83
2018-11-23T02:23:48.855Z,39.80
2018-11-23T02:26:16.885Z,36.40
2018-11-23T02:28:44.916Z,39.87
2018-11-23T02:31:12.982Z,38.13
2018-11-23T02:33:41.561Z,40.30
2018-11-23T02:36:10.651Z,40.10
2018-11-23T02:38:38.930Z,41.77
2018-11-23T02:41:07.035Z,40.50
2018-11-23T02:43:35.025Z,36.33
2018-11-23T02:46:03.057Z,39.10
2018-11-23T02:48:31.061Z,36.10
2018-11-23T02:50:59.085Z,36.10
2018-11-23T02:53:27.125Z,39.60
2018-11-23T02:55:55.133Z,38.50
2018-11-23T02:58:23.142Z,42.00
2018-11-23T03:00:51.137Z,39.17
2018-11-23T03:03:19.184Z,41.33
2018-11-23T03:05:47.298Z,41.70
2018-11-23T03:08:15.338Z,39.60
2018-11-23T03:10:43.361Z,39.53
2018-11-23T03:13:11.373Z,36.93
2018-11-23T03:15:39.394Z,41.77
2018-11-23T03:18:07.602Z,37.67
2018-11-23T03:20:35.600Z,41.37
2018-11-23T03:23:03.615Z,39.67
2018-11-23T03:25:31.634Z,42.23
2018-11-23T03:27:59.661Z,41.77
2018-11-23T03:30:27.796Z,39.70
2018-11-23T03:32:55.789Z,38.10
2018-11-23T03:35:24.046Z,42.20
2018-11-23T03:37:52.054Z,39.20
2018-11-23T03:40:20.102Z,45.27
2018-11-23T03:42:48.099Z,41.57
2018-11-23T03:45:16.523Z,40.60
2018-11-23T03:47:44.809Z,42.90
2018-11-23T03:50:13.690Z,38.60
2018-11-23T03:52:42.182Z,41.63
2018-11-23T03:55:10.185Z,39.80
2018-11-23T03:57:38.354Z,42.00
2018-11-23T04:00:17.485Z,40.80
2018-11-23T04:02:41.507Z,40.50
2018-11-23T04:05:09.511Z,40.50
2018-11-23T04:07:37.525Z,42.20
2018-11-23T04:10:07.178Z,41.67
2018-11-23T04:12:35.207Z,43.70
2018-11-23T04:15:03.223Z,43.23
2018-11-23T04:17:31.232Z,43.73
2018-11-23T04:19:59.277Z,39.80
2018-11-23T04:22:27.317Z,41.33
2018-11-23T04:24:55.399Z,43.33
2018-11-23T04:27:23.570Z,35.17
2018-11-23T04:29:51.753Z,43.90
2018-11-23T04:32:19.812Z,41.87
2018-11-23T04:34:47.934Z,43.93
2018-11-23T04:37:15.946Z,40.23
2018-11-23T04:39:43.962Z,42.17
2018-11-23T04:42:12.006Z,42.63
2018-11-23T04:44:40.018Z,41.50
2018-11-23T04:47:08.014Z,42.10
2018-11-23T04:49:36.048Z,39.70
2018-11-23T04:52:04.039Z,43.63
2018-11-23T04:54:32.046Z,41.80
2018-11-23T04:57:01.090Z,42.23
2018-11-23T04:59:29.106Z,41.47
2018-11-23T05:01:57.106Z,43.97
2018-11-23T05:04:25.127Z,39.13
2018-11-23T05:06:53.193Z,41.90
2018-11-23T05:09:21.186Z,41.30
2018-11-23T05:11:50.263Z,39.40
2018-11-23T05:14:17.197Z,36.77
2018-11-23T05:16:45.218Z,38.70
2018-11-23T05:19:13.324Z,40.00
2018-11-23T05:21:41.348Z,40.80
2018-11-23T05:24:09.357Z,41.10
2018-11-23T05:26:37.356Z,42.10
2018-11-23T05:29:05.669Z,41.43
2018-11-23T05:31:33.671Z,36.63
2018-11-23T05:34:01.673Z,39.93
2018-11-23T05:36:29.680Z,38.20
2018-11-23T05:38:57.700Z,39.03
2018-11-23T05:41:25.767Z,39.40
2018-11-23T05:43:53.772Z,37.97
2018-11-23T05:46:21.793Z,41.60
2018-11-23T05:48:49.820Z,39.93
2018-11-23T05:51:17.818Z,38.47
2018-11-23T05:53:45.874Z,41.27
2018-11-23T05:56:13.918Z,37.80
2018-11-23T05:58:41.947Z,39.87
2018-11-23T06:01:09.961Z,38.27
2018-11-23T06:03:37.977Z,38.20
2018-11-23T06:06:06.111Z,37.43
2018-11-23T06:08:34.110Z,42.17
2018-11-23T06:11:02.256Z,37.53
2018-11-23T06:13:30.305Z,39.40
2018-11-23T06:15:58.361Z,38.70
2018-11-23T06:18:26.433Z,36.57
2018-11-23T06:20:54.478Z,37.67
2018-11-23T06:23:22.489Z,37.83
2018-11-23T06:25:55.334Z,37.03
2018-11-23T06:28:23.354Z,35.70
2018-11-23T06:30:51.359Z,36.27
2018-11-23T06:33:31.467Z,29.80
2018-11-23T06:36:01.680Z,34.00
2018-11-23T06:38:29.677Z,36.00
2018-11-23T06:40:57.923Z,35.63
2018-11-23T06:43:26.098Z,34.87
2018-11-23T06:45:54.085Z,37.10
2018-11-23T06:48:22.081Z,36.20
2018-11-23T06:50:50.137Z,35.30
2018-11-23T06:53:18.177Z,34.63
2018-11-23T06:55:46.205Z,34.10
2018-11-23T06:58:14.267Z,36.90
2018-11-23T07:00:42.273Z,36.00
2018-11-23T07:03:10.283Z,32.67
2018-11-23T07:05:38.347Z,32.67
2018-11-23T07:08:06.839Z,38.63
2018-11-23T07:10:34.881Z,34.97
2018-11-23T07:13:02.893Z,32.40
2018-11-23T07:15:30.906Z,35.47
2018-11-23T07:17:58.934Z,38.73
2018-11-23T07:20:26.990Z,34.40
2018-11-23T07:22:54.980Z,33.50
2018-11-23T07:25:22.991Z,36.83
2018-11-23T07:27:51.080Z,33.83
2018-11-23T07:30:21.785Z,35.20
2018-11-23T07:32:49.785Z,33.93
2018-11-23T07:35:17.778Z,32.87
2018-11-23T07:37:45.887Z,31.83
2018-11-23T07:40:27.173Z,31.13
2018-11-23T07:42:55.542Z,34.00
2018-11-23T07:45:23.779Z,32.60
2018-11-23T07:47:51.890Z,33.80
2018-11-23T07:50:19.957Z,32.47
2018-11-23T07:52:47.965Z,35.97
2018-11-23T07:55:15.966Z,34.40
2018-11-23T07:57:43.945Z,30.67
2018-11-23T08:00:13.794Z,31.50
2018-11-23T08:02:42.157Z,35.90
2018-11-23T08:05:11.973Z,33.33
2018-11-23T08:07:40.017Z,33.70
2018-11-23T08:10:11.214Z,36.73
2018-11-23T08:12:40.273Z,33.67
2018-11-23T08:15:16.849Z,35.97
2018-11-23T08:17:44.839Z,36.50
2018-11-23T08:20:14.431Z,35.93
2018-11-23T08:22:42.697Z,35.60
2018-11-23T08:25:11.801Z,38.20
2018-11-23T08:27:40.292Z,35.80
2018-11-23T08:30:13.166Z,36.37
2018-11-23T08:32:41.438Z,35.50
2018-11-23T08:35:09.795Z,34.30
2018-11-23T08:37:38.189Z,35.93
2018-11-23T08:40:10.252Z,37.20
2018-11-23T08:42:38.231Z,34.70
2018-11-23T08:45:08.741Z,36.23
2018-11-23T08:47:36.929Z,34.20
2018-11-23T08:50:07.137Z,35.43
2018-11-23T08:52:35.133Z,36.17
2018-11-23T08:55:03.142Z,36.43
2018-11-23T08:57:31.146Z,34.20
2018-11-23T08:59:59.133Z,36.20
2018-11-23T09:02:27.130Z,34.57
2018-11-23T09:04:55.129Z,37.20
2018-11-23T09:07:23.133Z,35.00
2018-11-23T09:09:51.133Z,35.10
2018-11-23T09:12:19.126Z,35.90
2018-11-23T09:14:47.185Z,33.57
2018-11-23T09:17:15.178Z,36.43
2018-11-23T09:19:43.194Z,33.50
2018-11-23T09:22:11.190Z,37.33
2018-11-23T09:24:39.182Z,36.90
2018-11-23T09:27:06.958Z,34.63
2018-11-23T09:29:34.973Z,36.67
2018-11-23T09:32:02.970Z,33.20
2018-11-23T09:34:30.954Z,34.80
2018-11-23T09:36:58.962Z,34.10
2018-11-23T09:39:26.969Z,34.07
2018-11-23T09:41:54.981Z,34.63
2018-11-23T09:44:23.019Z,36.70
2018-11-23T09:46:51.016Z,33.97
2018-11-23T09:49:19.018Z,36.97
2018-11-23T09:51:47.135Z,35.93
2018-11-23T09:54:15.138Z,35.07
2018-11-23T09:56:43.137Z,33.93
2018-11-23T09:59:11.281Z,38.03
2018-11-23T10:01:39.279Z,35.63
2018-11-23T10:04:07.316Z,38.80
2018-11-23T10:06:35.313Z,34.90
2018-11-23T10:09:03.397Z,38.13
2018-11-23T10:11:31.409Z,38.93
2018-11-23T10:13:59.501Z,37.40
2018-11-23T10:16:27.715Z,36.07
2018-11-23T10:18:55.718Z,36.80
2018-11-23T10:21:23.869Z,38.57
2018-11-23T10:23:51.913Z,36.80
2018-11-23T10:26:19.910Z,38.80
2018-11-23T10:28:47.958Z,39.53
2018-11-23T10:31:15.950Z,38.20
2018-11-23T10:33:43.965Z,37.27
2018-11-23T10:36:12.004Z,37.30
2018-11-23T10:38:39.984Z,36.50
2018-11-23T10:41:08.024Z,35.77
2018-11-23T10:43:36.017Z,37.20
2018-11-23T10:46:04.032Z,36.97
2018-11-23T10:48:32.022Z,37.57
2018-11-23T10:51:00.045Z,39.97
2018-11-23T10:53:28.062Z,37.70
2018-11-23T10:55:56.091Z,39.93
2018-11-23T10:58:24.096Z,35.07
2018-11-23T11:00:57.658Z,36.47
2018-11-23T11:03:33.257Z,35.67
2018-11-23T11:06:09.258Z,38.03
2018-11-23T11:08:37.541Z,37.13
2018-11-23T11:11:05.729Z,38.87
2018-11-23T11:13:33.739Z,37.13
2018-11-23T11:16:01.879Z,37.47
2018-11-23T11:18:29.888Z,38.13
2018-11-23T11:20:58.897Z,38.50
2018-11-23T11:23:27.258Z,39.57
2018-11-23T11:25:55.366Z,35.90
2018-11-23T11:28:23.991Z,35.00
2018-11-23T11:30:52.035Z,37.77
2018-11-23T11:33:20.165Z,35.90
2018-11-23T11:35:48.218Z,37.50
2018-11-23T11:38:16.253Z,38.50
2018-11-23T11:40:44.277Z,35.53
2018-11-23T11:43:12.562Z,37.27
2018-11-23T11:45:40.569Z,34.50
2018-11-23T11:48:08.635Z,36.13
2018-11-23T11:50:36.850Z,33.07
2018-11-23T11:53:05.116Z,33.30
2018-11-23T11:55:33.112Z,32.30
2018-11-23T11:58:01.099Z,33.03
2018-11-23T12:00:29.169Z,32.50
2018-11-23T12:02:57.173Z,30.27
2018-11-23T12:05:25.170Z,29.87
2018-11-23T12:07:53.169Z,29.20
2018-11-23T12:10:22.697Z,26.47
2018-11-23T12:12:50.726Z,28.10
2018-11-23T12:15:18.749Z,30.63
2018-11-23T12:17:46.750Z,30.73
2018-11-23T12:20:17.325Z,29.00
2018-11-23T12:22:45.798Z,29.00
2018-11-23T12:25:13.805Z,29.20
2018-11-23T12:27:42.102Z,35.10
2018-11-23T12:30:14.946Z,31.77
2018-11-23T12:32:43.665Z,31.93
2018-11-23T12:35:12.654Z,33.00
2018-11-23T12:37:40.797Z,33.77
2018-11-23T12:40:10.547Z,35.90
2018-11-23T12:42:38.574Z,33.37
2018-11-23T12:45:08.094Z,33.47
2018-11-23T12:47:36.087Z,34.20
2018-11-23T12:50:04.822Z,33.97
2018-11-23T12:52:32.826Z,31.57
2018-11-23T12:55:00.846Z,33.23
2018-11-23T12:57:28.846Z,30.90
2018-11-23T12:59:56.866Z,32.13
2018-11-23T13:02:24.866Z,28.70
2018-11-23T13:04:52.889Z,29.90
2018-11-23T13:07:20.902Z,30.80
2018-11-23T13:09:48.915Z,28.33
2018-11-23T13:12:16.994Z,31.40
2018-11-23T13:14:44.986Z,30.57
2018-11-23T13:17:13.021Z,32.13
2018-11-23T13:19:41.034Z,32.50
2018-11-23T13:22:09.046Z,30.10
2018-11-23T13:24:37.025Z,31.93
2018-11-23T13:27:05.982Z,31.67
2018-11-23T13:29:33.974Z,30.50
2018-11-23T13:32:01.970Z,31.40
2018-11-23T13:34:29.958Z,30.80
2018-11-23T13:36:57.957Z,32.17
2018-11-23T13:39:25.944Z,32.63
2018-11-23T13:41:53.945Z,30.50
2018-11-23T13:44:21.932Z,31.67
2018-11-23T13:46:49.921Z,30.57
2018-11-23T13:49:17.921Z,30.10
2018-11-23T13:51:45.902Z,31.63
2018-11-23T13:54:13.914Z,30.00
2018-11-23T13:56:41.926Z,30.47
2018-11-23T13:59:09.979Z,31.00
2018-11-23T14:01:37.918Z,31.47
2018-11-23T14:04:05.934Z,30.13
2018-11-23T14:06:33.936Z,31.87
2018-11-23T14:09:01.938Z,28.10
2018-11-23T14:11:29.957Z,30.50
2018-11-23T14:13:57.957Z,32.73
2018-11-23T14:16:25.962Z,30.90
2018-11-23T14:18:53.949Z,30.30
2018-11-23T14:21:21.977Z,30.73
2018-11-23T14:23:49.995Z,32.50
2018-11-23T14:26:18.016Z,30.87
2018-11-23T14:28:46.006Z,30.13
2018-11-23T14:31:14.011Z,31.40
2018-11-23T14:33:42.008Z,31.17
2018-11-23T14:36:10.019Z,34.07
2018-11-23T14:38:38.034Z,35.03
2018-11-23T14:41:06.058Z,33.07
2018-11-23T14:43:34.120Z,33.17
2018-11-23T14:46:02.111Z,33.17
2018-11-23T14:48:30.107Z,33.97
2018-11-23T14:50:58.105Z,30.90
2018-11-23T14:53:26.118Z,30.23
2018-11-23T14:55:54.313Z,30.90
2018-11-23T14:58:22.317Z,32.60
2018-11-23T15:00:50.321Z,33.27
2018-11-23T15:03:19.393Z,33.27
2018-11-23T15:05:46.342Z,34.03
2018-11-23T15:08:14.360Z,34.07
2018-11-23T15:10:42.358Z,33.63
2018-11-23T15:13:10.357Z,33.30
2018-11-23T15:15:39.829Z,33.57
2018-11-23T15:18:08.421Z,35.23
2018-11-23T15:20:37.997Z,37.00
2018-11-23T15:23:09.353Z,33.80
2018-11-23T15:25:37.402Z,32.70
2018-11-23T15:28:06.209Z,34.67
2018-11-23T15:30:35.429Z,36.33
2018-11-23T15:33:04.006Z,34.93
2018-11-23T15:35:33.388Z,35.07
2018-11-23T15:38:01.446Z,35.83
2018-11-23T15:40:30.289Z,34.50
2018-11-23T15:43:00.629Z,37.90
2018-11-23T15:45:29.683Z,36.40
2018-11-23T15:47:58.267Z,36.43
2018-11-23T15:50:27.875Z,34.97
2018-11-23T15:52:55.857Z,35.23
2018-11-23T15:55:26.857Z,35.60
2018-11-23T15:57:56.286Z,34.20
2018-11-23T16:00:26.535Z,33.87
2018-11-23T16:02:54.780Z,34.13
2018-11-23T16:05:23.039Z,34.70
2018-11-23T16:07:51.757Z,35.97
2018-11-23T16:10:23.424Z,33.20
2018-11-23T16:12:53.512Z,34.00
2018-11-23T16:15:22.211Z,32.13
2018-11-23T16:17:50.721Z,34.70
2018-11-23T16:20:20.293Z,33.73
2018-11-23T16:22:51.494Z,33.30
2018-11-23T16:25:19.599Z,33.30
2018-11-23T16:27:49.110Z,33.07
2018-11-23T16:30:21.385Z,34.23
2018-11-23T16:32:50.489Z,37.27
2018-11-23T16:35:20.002Z,34.10
2018-11-23T16:37:48.259Z,33.20
2018-11-23T16:40:18.677Z,33.43
2018-11-23T16:42:46.693Z,33.80
2018-11-23T16:45:18.098Z,33.20
2018-11-23T16:47:46.678Z,35.73
2018-11-23T16:50:14.861Z,35.03
2018-11-23T16:52:44.048Z,34.80
2018-11-23T16:55:13.058Z,32.73
2018-11-23T16:57:42.301Z,31.67
2018-11-23T17:00:20.158Z,32.13
2018-11-23T17:02:48.331Z,29.77
2018-11-23T17:05:17.741Z,32.00
2018-11-23T17:07:45.775Z,33.97
2018-11-23T17:10:15.081Z,31.93
2018-11-23T17:12:43.504Z,35.20
2018-11-23T17:15:15.218Z,33.80
2018-11-23T17:17:43.404Z,35.77
2018-11-23T17:20:13.523Z,32.43
2018-11-23T17:22:42.720Z,31.67
2018-11-23T17:25:12.134Z,29.90
2018-11-23T17:27:40.242Z,30.87
2018-11-23T17:30:10.292Z,32.57
2018-11-23T17:32:38.606Z,34.20
2018-11-23T17:35:07.257Z,30.43
2018-11-23T17:37:35.650Z,32.97
2018-11-23T17:40:03.903Z,32.87
2018-11-23T17:42:31.940Z,32.87
2018-11-23T17:45:00.410Z,32.60
2018-11-23T17:47:28.773Z,31.30
2018-11-23T17:49:57.014Z,33.87
2018-11-23T17:52:25.017Z,28.50
2018-11-23T17:54:53.048Z,30.90
2018-11-23T17:57:21.054Z,31.50
2018-11-23T17:59:50.234Z,35.47
2018-11-23T18:02:19.962Z,31.40
2018-11-23T18:04:48.416Z,31.97
2018-11-23T18:07:16.427Z,28.67
2018-11-23T18:09:44.662Z,31.53
2018-11-23T18:12:12.770Z,30.30
2018-11-23T18:14:40.760Z,31.47
2018-11-23T18:17:08.785Z,30.60
2018-11-23T18:19:36.786Z,31.47
2018-11-23T18:22:04.812Z,32.50
2018-11-23T18:24:32.810Z,29.53
2018-11-23T18:27:00.907Z,31.67
2018-11-23T18:29:29.018Z,30.13
2018-11-23T18:31:57.029Z,29.33
2018-11-23T18:34:25.085Z,32.67
2018-11-23T18:36:53.105Z,31.40
2018-11-23T18:39:21.098Z,31.43
2018-11-23T18:41:49.143Z,31.70
2018-11-23T18:44:17.210Z,31.20
2018-11-23T18:46:45.224Z,32.20
2018-11-23T18:49:13.246Z,27.23
2018-11-23T18:51:41.305Z,29.47
2018-11-23T18:54:10.378Z,28.60
2018-11-23T18:56:38.405Z,30.80
2018-11-23T18:59:06.471Z,30.67
2018-11-23T19:01:34.522Z,30.03
2018-11-23T19:04:02.546Z,32.73
2018-11-23T19:06:30.534Z,30.97
2018-11-23T19:08:58.563Z,30.60
2018-11-23T19:11:26.774Z,30.80
2018-11-23T19:13:54.772Z,31.10
2018-11-23T19:16:22.809Z,31.53
2018-11-23T19:18:50.895Z,30.57
2018-11-23T19:21:18.889Z,29.20
2018-11-23T19:23:46.945Z,30.17
2018-11-23T19:26:14.954Z,30.27
2018-11-23T19:28:42.978Z,30.57
2018-11-23T19:31:11.165Z,31.20
2018-11-23T19:33:39.208Z,31.47
2018-11-23T19:36:07.194Z,30.33
2018-11-23T19:38:36.226Z,30.57
2018-11-23T19:41:04.257Z,30.33
2018-11-23T19:43:32.278Z,30.00
2018-11-23T19:46:00.294Z,28.30
2018-11-23T19:48:28.317Z,27.40
2018-11-23T19:50:56.318Z,30.67
2018-11-23T19:53:24.362Z,33.97
2018-11-23T19:55:52.431Z,30.40
2018-11-23T19:58:20.474Z,32.90
2018-11-23T20:00:48.479Z,29.00
2018-11-23T20:03:16.543Z,28.43
2018-11-23T20:05:44.516Z,28.23
2018-11-23T20:08:12.595Z,29.43
2018-11-23T20:10:40.626Z,28.00
2018-11-23T20:13:08.639Z,28.77
2018-11-23T20:15:36.696Z,29.30
2018-11-23T20:18:04.842Z,27.60
2018-11-23T20:20:32.845Z,28.13
2018-11-23T20:23:02.926Z,29.57
2018-11-23T20:25:30.946Z,30.50
2018-11-23T20:27:58.939Z,29.50
2018-11-23T20:30:26.970Z,31.07
2018-11-23T20:32:54.994Z,30.27
2018-11-23T20:35:23.297Z,29.90
2018-11-23T20:37:51.313Z,30.00
2018-11-23T20:40:20.356Z,29.50
2018-11-23T20:42:48.371Z,27.13
2018-11-23T20:45:16.425Z,26.47
2018-11-23T20:47:44.453Z,31.27
2018-11-23T20:50:14.383Z,28.93
2018-11-23T20:52:42.394Z,30.83
2018-11-23T20:55:17.498Z,30.33
2018-11-23T20:57:45.498Z,34.93
2018-11-23T21:00:16.147Z,28.07
2018-11-23T21:02:44.732Z,32.40
2018-11-23T21:05:14.672Z,31.40
2018-11-23T21:07:42.713Z,31.57
2018-11-23T21:10:19.912Z,31.70
2018-11-23T21:12:40.729Z,31.27
2018-11-23T21:15:18.436Z,30.90
2018-11-23T21:17:46.526Z,28.87
2018-11-23T21:20:14.549Z,28.53
2018-11-23T21:22:42.613Z,29.43
2018-11-23T21:25:11.092Z,31.07
2018-11-23T21:27:39.159Z,28.10
2018-11-23T21:30:12.701Z,28.03
2018-11-23T21:32:40.749Z,32.10
2018-11-23T21:35:09.461Z,29.53
2018-11-23T21:37:37.473Z,31.00
2018-11-23T21:40:11.689Z,30.53
2018-11-23T21:42:39.694Z,32.90
2018-11-23T21:45:10.859Z,31.17
2018-11-23T21:47:38.873Z,30.07
2018-11-23T21:50:09.396Z,34.07
2018-11-23T21:52:37.412Z,30.00
2018-11-23T21:55:07.817Z,29.97
2018-11-23T21:57:35.853Z,29.00
2018-11-23T22:00:05.727Z,29.87
2018-11-23T22:02:33.806Z,30.93
2018-11-23T22:05:01.823Z,30.13
2018-11-23T22:07:29.838Z,29.13
2018-11-23T22:09:57.961Z,30.33
2018-11-23T22:12:26.117Z,31.83
2018-11-23T22:14:54.210Z,31.37
2018-11-23T22:17:22.234Z,33.60
2018-11-23T22:19:50.427Z,32.27
2018-11-23T22:22:18.436Z,29.93
2018-11-23T22:24:46.445Z,32.90
2018-11-23T22:27:14.490Z,34.17
2018-11-23T22:29:42.533Z,32.03
2018-11-23T22:32:10.563Z,33.90
2018-11-23T22:34:38.588Z,31.73
2018-11-23T22:37:06.626Z,35.37
2018-11-23T22:39:34.627Z,32.97
2018-11-23T22:42:02.702Z,31.13
2018-11-23T22:44:30.742Z,33.90
2018-11-23T22:46:58.777Z,33.53
2018-11-23T22:49:26.797Z,34.40
2018-11-23T22:51:54.814Z,32.23
2018-11-23T22:54:22.909Z,33.20
2018-11-23T22:56:50.926Z,32.20
2018-11-23T22:59:18.954Z,32.13
2018-11-23T23:01:47.238Z,33.17
2018-11-23T23:04:15.261Z,31.87
2018-11-23T23:06:43.297Z,32.90
2018-11-23T23:09:11.407Z,30.00
2018-11-23T23:11:39.663Z,34.03
2018-11-23T23:14:07.657Z,32.77
2018-11-23T23:16:35.705Z,33.37
2018-11-23T23:19:03.691Z,32.90
2018-11-23T23:21:31.743Z,33.23
2018-11-23T23:23:59.799Z,35.10
2018-11-23T23:26:27.808Z,33.87
2018-11-23T23:28:55.934Z,34.30
2018-11-23T23:31:23.982Z,34.20
2018-11-23T23:33:51.981Z,29.07
2018-11-23T23:36:19.990Z,32.20
2018-11-23T23:38:48.009Z,31.70
2018-11-23T23:41:16.045Z,33.37
2018-11-23T23:43:44.041Z,31.47
2018-11-23T23:46:12.041Z,30.27
2018-11-23T23:48:40.062Z,30.43
2018-11-23T23:51:08.111Z,33.00
2018-11-23T23:53:36.162Z,31.83
2018-11-23T23:56:04.533Z,29.00
2018-11-23T23:58:32.545Z,32.63
